Elvia — 9HA3106 — position and weather

sailwx.info

Track history (hours):
 
Tides and Currents Weather Stations Pressure Air Temp Water Temp Dewpoint Dewpoint Depression Visibility Wind Speed Wind Dir Waves Ship Positions

Elvia

Last reported at 2018-Feb-19 07:27 UTC. Time now 2018-Feb-21 03:22 UTC.
Position N 49°17' W 005°60'.

Length 230 m; draft 9.6 m.

Type: Ship. MMSI: 229148000.

Date/timePositionNaut miles runAvg speedWind from/ knotsBaromVisibWave heightAir tempDewpointWater temp
2018-Feb-19 07:27N 49°17' W 005°60'9011.4
2018-Feb-18 23:32N 49°47' W 003°49'013.1
2018-Feb-18 23:30N 49°47' W 003°48'712.4
2018-Feb-18 22:55N 49°50' W 003°38'511.9
2018-Feb-18 22:30N 49°53' W 003°31'611.4
2018-Feb-18 22:01N 49°54' W 003°23'610.9
2018-Feb-18 21:30N 49°56' W 003°15'610.5
2018-Feb-18 20:58N 49°58' W 003°07'510.4
2018-Feb-18 20:31N 49°59' W 002°60'510.6
2018-Feb-18 20:01N 50°01' W 002°52'510.9
2018-Feb-18 19:30N 50°03' W 002°44'611.3
2018-Feb-18 19:01N 50°04' W 002°35'1813.0
2018-Feb-18 17:36N 50°08' W 002°07'314.7
2018-Feb-18 17:24N 50°09' W 002°03'615.3
2018-Feb-18 17:00N 50°10' W 001°54'815.9
2018-Feb-18 16:30N 50°12' W 001°42'816.0
2018-Feb-18 16:00N 50°15' W 001°30'816.1
2018-Feb-18 15:30N 50°17' W 001°18'3314.6
2018-Feb-18 13:16N 50°26' W 000°28'312.9
2018-Feb-18 13:00N 50°26' W 000°23'612.4
2018-Feb-18 12:30N 50°28' W 000°14'611.7
2018-Feb-18 12:00N 50°30' W 000°05'611.2
2018-Feb-18 11:30N 50°31' E 000°04'510.7
2018-Feb-18 11:00N 50°33' E 000°12'510.3
2018-Feb-18 10:31N 50°34' E 000°20'510.1
2018-Feb-18 10:00N 50°35' E 000°27'510.8
2018-Feb-18 09:30N 50°37' E 000°35'611.6
2018-Feb-18 09:00N 50°40' E 000°43'612.5
2018-Feb-18 08:30N 50°44' E 000°51'713.5
2018-Feb-18 08:00N 50°47' E 001°00'714.0
2018-Feb-18 07:30N 50°51' E 001°09'714.3
2018-Feb-18 07:00N 50°55' E 001°19'714.5
2018-Feb-18 06:30N 51°01' E 001°26'613.0
2018-Feb-18 06:00N 51°05' E 001°33'612.4
2018-Feb-18 05:30N 51°10' E 001°40'612.0
2018-Feb-18 05:01N 51°14' E 001°47'611.3
2018-Feb-18 04:30N 51°19' E 001°50'510.8
2018-Feb-18 04:00N 51°24' E 001°54'510.5
2018-Feb-18 03:30N 51°29' E 001°58'510.8
2018-Feb-18 03:00N 51°33' E 002°05'510.9
2018-Feb-18 02:30N 51°37' E 002°10'510.8
2018-Feb-18 02:01N 51°41' E 002°16'611.2
2018-Feb-18 01:30N 51°45' E 002°22'611.9
2018-Feb-18 01:00N 51°49' E 002°28'612.5
2018-Feb-18 00:30N 51°54' E 002°35'3313.8
2018-Feb-17 22:07N 52°19' E 003°10'5512.8
2018-Feb-17 17:47N 53°02' E 004°08'311.6
2018-Feb-17 17:30N 53°04' E 004°12'1311.1
2018-Feb-17 16:20N 53°14' E 004°26'4512.4
2018-Feb-17 12:39N 53°40' E 005°29'2312.5
2018-Feb-17 10:48N 53°47' E 006°06'1311.4
2018-Feb-17 09:38N 53°51' E 006°28'6112.2
2018-Feb-17 04:38N 54°00' E 008°11'110.9
2018-Feb-17 04:30N 54°00' E 008°13'713.6
2018-Feb-17 04:00N 53°59' E 008°24'816.0
2018-Feb-17 03:30N 53°57' E 008°37'714.9
2018-Feb-17 03:00N 53°51' E 008°45'612.3
2018-Feb-17 02:30N 53°51' E 008°55'611.5
2018-Feb-17 02:00N 53°52' E 009°05'4 7.9
2018-Feb-17 01:30N 53°53' E 009°11'5 9.3
2018-Feb-17 01:00N 53°51' E 009°19'510.2
2018-Feb-17 00:30N 53°47' E 009°23'5 9.6
2018-Feb-17 00:01N 53°43' E 009°28'5 9.7
2018-Feb-16 23:30N 53°39' E 009°31'510.0
2018-Feb-16 23:00N 53°35' E 009°37'611.3
2018-Feb-16 22:30N 53°34' E 009°46'510.2
2018-Feb-16 22:00N 53°33' E 009°55'2 3.6
2018-Feb-16 21:31N 53°31' E 009°57'0 0.1
2018-Feb-16 20:58N 53°31' E 009°57'0 0.0
2018-Feb-16 20:25N 53°31' E 009°57'0 0.0
2018-Feb-16 19:58N 53°31' E 009°57'0 0.0
2018-Feb-16 19:28N 53°31' E 009°57'0 0.0
2018-Feb-16 18:58N 53°31' E 009°57'0 0.0
2018-Feb-16 18:28N 53°31' E 009°57'0 0.0
2018-Feb-16 17:58N 53°31' E 009°57'0 0.0
2018-Feb-16 17:28N 53°31' E 009°57'0 0.0
2018-Feb-16 16:58N 53°31' E 009°57'0 0.0
2018-Feb-16 16:28N 53°31' E 009°57'0 0.0
2018-Feb-16 15:58N 53°31' E 009°57'0 0.0
2018-Feb-16 15:28N 53°31' E 009°57'0 0.0
2018-Feb-16 14:58N 53°31' E 009°57'0 0.0
2018-Feb-16 14:28N 53°31' E 009°57'0 0.0
2018-Feb-16 13:58N 53°31' E 009°57'0 0.0
2018-Feb-16 13:25N 53°31' E 009°57'0 0.0
2018-Feb-16 12:58N 53°31' E 009°57'0 0.0
2018-Feb-16 12:28N 53°31' E 009°57'0 0.0
2018-Feb-16 11:58N 53°31' E 009°57'0 0.0
2018-Feb-16 11:28N 53°31' E 009°57'0 0.0
2018-Feb-16 10:58N 53°31' E 009°57'0 0.0
2018-Feb-16 10:28N 53°31' E 009°57'0 0.0
2018-Feb-16 09:58N 53°31' E 009°57'0 0.0
2018-Feb-16 09:28N 53°31' E 009°57'0 0.0
2018-Feb-16 08:58N 53°31' E 009°57'0 0.0
2018-Feb-16 08:28N 53°31' E 009°57'0 0.0
2018-Feb-16 07:58N 53°31' E 009°57'0 0.0
2018-Feb-16 07:28N 53°31' E 009°57'0 0.0
2018-Feb-16 06:58N 53°31' E 009°57'0 0.0
2018-Feb-16 06:28N 53°31' E 009°57'0 0.0
2018-Feb-16 05:58N 53°31' E 009°57'0 0.0
2018-Feb-16 05:28N 53°31' E 009°57'0 0.0
2018-Feb-16 04:58N 53°31' E 009°57'0 0.0
2018-Feb-16 04:28N 53°31' E 009°57'0 0.0
2018-Feb-16 03:58N 53°31' E 009°57'0 0.0
2018-Feb-16 03:25N 53°31' E 009°57'0 0.0
2018-Feb-16 02:58N 53°31' E 009°57'0 0.0
2018-Feb-16 02:28N 53°31' E 009°57'0 0.0
2018-Feb-16 01:58N 53°31' E 009°57'0 0.0
2018-Feb-16 01:28N 53°31' E 009°57'0 0.0
2018-Feb-16 00:58N 53°31' E 009°57'0 0.0
2018-Feb-16 00:28N 53°31' E 009°57'0 0.0
2018-Feb-15 23:58N 53°31' E 009°57'0 0.0
2018-Feb-15 23:28N 53°31' E 009°57'0 0.0
2018-Feb-15 22:58N 53°31' E 009°57'0 0.0
2018-Feb-15 22:28N 53°31' E 009°57'0 0.0
2018-Feb-15 21:58N 53°31' E 009°57'0 0.0
2018-Feb-15 21:28N 53°31' E 009°57'0 0.0
2018-Feb-15 20:58N 53°31' E 009°57'0 0.0
2018-Feb-15 20:28N 53°31' E 009°57'0 0.0
2018-Feb-15 19:58N 53°31' E 009°57'0 0.0
2018-Feb-15 19:28N 53°31' E 009°57'0 0.0
2018-Feb-15 18:58N 53°31' E 009°57'0 0.0
2018-Feb-15 18:28N 53°31' E 009°57'0 0.0
2018-Feb-15 17:58N 53°31' E 009°57'0 0.0
2018-Feb-15 17:28N 53°31' E 009°57'0 0.0
2018-Feb-15 16:58N 53°31' E 009°57'0 0.0
2018-Feb-15 16:25N 53°31' E 009°57'0 0.0
2018-Feb-15 15:58N 53°31' E 009°57'0 0.0
2018-Feb-15 15:28N 53°31' E 009°57'0 0.0
2018-Feb-15 14:58N 53°31' E 009°57'0 0.0
2018-Feb-15 14:28N 53°31' E 009°57'0 0.0
2018-Feb-15 13:58N 53°31' E 009°57'0 0.0
2018-Feb-15 13:28N 53°31' E 009°57'0 0.0
2018-Feb-15 12:58N 53°31' E 009°57'0 0.0
2018-Feb-15 12:28N 53°31' E 009°57'0 0.0
2018-Feb-15 11:58N 53°31' E 009°57'0 0.0
2018-Feb-15 11:28N 53°31' E 009°57'0 0.0
2018-Feb-15 10:58N 53°31' E 009°57'0 0.0
2018-Feb-15 10:28N 53°31' E 009°57'0 0.0
2018-Feb-15 09:58N 53°31' E 009°57'0 0.0
2018-Feb-15 09:28N 53°31' E 009°57'0 0.0
2018-Feb-15 08:58N 53°31' E 009°57'0 0.0
2018-Feb-15 08:28N 53°31' E 009°57'0 0.0
2018-Feb-15 07:55N 53°31' E 009°57'0 0.0
2018-Feb-15 07:28N 53°31' E 009°57'0 0.0
2018-Feb-15 06:58N 53°31' E 009°57'0 0.0
2018-Feb-15 06:28N 53°31' E 009°57'0 0.0
2018-Feb-15 05:58N 53°31' E 009°57'0 0.0
2018-Feb-15 05:28N 53°31' E 009°57'0 0.0
2018-Feb-15 04:58N 53°31' E 009°57'0 0.0
2018-Feb-15 04:28N 53°31' E 009°57'0 0.0
2018-Feb-15 03:58N 53°31' E 009°57'0 0.0
2018-Feb-15 03:28N 53°31' E 009°57'0 0.0
2018-Feb-15 02:58N 53°31' E 009°57'0 0.0
2018-Feb-15 02:25N 53°31' E 009°57'0 0.0
2018-Feb-15 01:58N 53°31' E 009°57'0 0.0
2018-Feb-15 01:28N 53°31' E 009°57'0 0.0
2018-Feb-15 00:58N 53°31' E 009°57'0 0.0
2018-Feb-15 00:28N 53°31' E 009°57'0 0.0
2018-Feb-14 23:58N 53°31' E 009°57'0 0.0
2018-Feb-14 23:28N 53°31' E 009°57'0 0.0
2018-Feb-14 22:58N 53°31' E 009°57'0 0.0
2018-Feb-14 22:28N 53°31' E 009°57'0 0.0
2018-Feb-14 21:58N 53°31' E 009°57'0 0.0
2018-Feb-14 21:28N 53°31' E 009°57'0 0.0
2018-Feb-14 20:58N 53°31' E 009°57'0 0.0
2018-Feb-14 20:28N 53°31' E 009°57'0 0.0
2018-Feb-14 19:58N 53°31' E 009°57'0 0.0
2018-Feb-14 19:28N 53°31' E 009°57'0 0.0
2018-Feb-14 18:58N 53°31' E 009°57'0 0.0
2018-Feb-14 18:28N 53°31' E 009°57'0 0.0
2018-Feb-14 17:58N 53°31' E 009°57'0 0.0
2018-Feb-14 17:28N 53°31' E 009°57'0 0.0
2018-Feb-14 16:58N 53°31' E 009°57'0 0.0
2018-Feb-14 16:28N 53°31' E 009°57'0 0.0
2018-Feb-14 15:55N 53°31' E 009°57'0 0.0
2018-Feb-14 15:28N 53°31' E 009°57'0 0.0
2018-Feb-14 14:58N 53°31' E 009°57'0 0.0
2018-Feb-14 14:28N 53°31' E 009°57'0 0.0
2018-Feb-14 13:58N 53°31' E 009°57'0 0.0
2018-Feb-14 13:28N 53°31' E 009°57'0 0.0
2018-Feb-14 12:58N 53°31' E 009°57'0 0.0
2018-Feb-14 12:22N 53°31' E 009°57'0 0.0
2018-Feb-14 11:58N 53°31' E 009°57'0 0.0
2018-Feb-14 11:28N 53°31' E 009°57'0 0.0
2018-Feb-14 10:58N 53°31' E 009°57'0 0.0
2018-Feb-14 10:28N 53°31' E 009°57'0 0.0
2018-Feb-14 09:58N 53°31' E 009°57'0 0.0
2018-Feb-14 09:25N 53°31' E 009°57'0 0.0
2018-Feb-14 08:58N 53°31' E 009°57'0 0.0
2018-Feb-14 08:28N 53°31' E 009°57'0 0.0
2018-Feb-14 07:58N 53°31' E 009°57'0 0.0
2018-Feb-14 07:28N 53°31' E 009°57'0 0.0
2018-Feb-14 06:58N 53°31' E 009°57'0 0.0
2018-Feb-14 06:28N 53°31' E 009°57'0 0.0
2018-Feb-14 05:58N 53°31' E 009°57'0 0.0
2018-Feb-14 05:28N 53°31' E 009°57'0 0.0
2018-Feb-14 04:58N 53°31' E 009°57'0 0.0
2018-Feb-14 04:28N 53°31' E 009°57'0 0.0
2018-Feb-14 03:58N 53°31' E 009°57'0 0.0
2018-Feb-14 03:28N 53°31' E 009°57'0 0.0
2018-Feb-14 02:58N 53°31' E 009°57'0 0.0
2018-Feb-14 02:28N 53°31' E 009°57'0 0.0
2018-Feb-14 01:58N 53°31' E 009°57'0 0.0
2018-Feb-14 01:28N 53°31' E 009°57'0 0.0
2018-Feb-14 00:58N 53°31' E 009°57'0 0.0
2018-Feb-14 00:28N 53°31' E 009°57'0 0.0
2018-Feb-13 23:58N 53°31' E 009°57'0 0.0
2018-Feb-13 23:28N 53°31' E 009°57'0 0.0
2018-Feb-13 22:58N 53°31' E 009°57'0 0.0
2018-Feb-13 22:28N 53°31' E 009°57'0 0.0
2018-Feb-13 21:58N 53°31' E 009°57'0 0.0
2018-Feb-13 21:28N 53°31' E 009°57'0 0.0
2018-Feb-13 20:58N 53°31' E 009°57'0 0.0
2018-Feb-13 20:25N 53°31' E 009°57'0 0.0
2018-Feb-13 19:58N 53°31' E 009°57'0 0.0
2018-Feb-13 19:28N 53°31' E 009°57'0 0.0
2018-Feb-13 18:58N 53°31' E 009°57'0 0.0
2018-Feb-13 18:28N 53°31' E 009°57'0 0.0
2018-Feb-13 17:58N 53°31' E 009°57'0 0.0
2018-Feb-13 17:25N 53°31' E 009°57'0 0.0
2018-Feb-13 16:58N 53°31' E 009°57'0 0.0
2018-Feb-13 16:28N 53°31' E 009°57'0 0.0
2018-Feb-13 15:58N 53°31' E 009°57'0 0.0
2018-Feb-13 15:28N 53°31' E 009°57'0 0.0
2018-Feb-13 14:58N 53°31' E 009°57'0 0.0
2018-Feb-13 14:28N 53°31' E 009°57'0 0.0
2018-Feb-13 13:58N 53°31' E 009°57'0 0.3
2018-Feb-13 13:30N 53°31' E 009°56'0 0.4
2018-Feb-13 12:59N 53°31' E 009°56'0 0.0
2018-Feb-13 12:29N 53°31' E 009°56'0 0.0
2018-Feb-13 12:00N 53°31' E 009°56'0 0.0
2018-Feb-13 11:29N 53°31' E 009°56'0 0.0
2018-Feb-13 11:00N 53°31' E 009°56'0 0.0
2018-Feb-13 10:30N 53°31' E 009°56'0 0.0
2018-Feb-13 09:59N 53°31' E 009°56'0 0.0
2018-Feb-13 09:29N 53°31' E 009°56'0 0.0
2018-Feb-13 08:59N 53°31' E 009°56'0 0.0
2018-Feb-13 08:30N 53°31' E 009°56'0 0.0
2018-Feb-13 07:59N 53°31' E 009°56'0 0.0
2018-Feb-13 07:30N 53°31' E 009°56'0 0.0
2018-Feb-13 07:00N 53°31' E 009°56'0 0.0
2018-Feb-13 06:30N 53°31' E 009°56'0 0.0
2018-Feb-13 05:59N 53°31' E 009°56'0 0.0
2018-Feb-13 05:30N 53°31' E 009°56'0 0.0
2018-Feb-13 04:59N 53°31' E 009°56'0 0.0
2018-Feb-13 04:30N 53°31' E 009°56'0 0.0
2018-Feb-13 04:00N 53°31' E 009°56'0 0.0
2018-Feb-13 03:29N 53°31' E 009°56'0 0.0
2018-Feb-13 03:00N 53°31' E 009°56'0 0.0
2018-Feb-13 02:29N 53°31' E 009°56'0 0.0
2018-Feb-13 01:59N 53°31' E 009°56'0 0.0
2018-Feb-13 01:30N 53°31' E 009°56'0 0.0
2018-Feb-13 01:00N 53°31' E 009°56'0 0.0
2018-Feb-13 00:30N 53°31' E 009°56'0 0.0
2018-Feb-12 23:59N 53°31' E 009°56'0 0.0
2018-Feb-12 23:30N 53°31' E 009°56'0 0.0
2018-Feb-12 23:00N 53°31' E 009°56'0 0.0
2018-Feb-12 22:30N 53°31' E 009°56'0 0.0
2018-Feb-12 22:00N 53°31' E 009°56'0 0.0
2018-Feb-12 21:30N 53°31' E 009°56'0 0.0
2018-Feb-12 20:59N 53°31' E 009°56'0 0.0
2018-Feb-12 20:30N 53°31' E 009°56'0 0.0
2018-Feb-12 19:59N 53°31' E 009°56'0 0.0
2018-Feb-12 19:30N 53°31' E 009°56'0 0.0
2018-Feb-12 19:00N 53°31' E 009°56'0 0.0
2018-Feb-12 18:30N 53°31' E 009°56'0 0.0
2018-Feb-12 18:00N 53°31' E 009°56'0 0.0
2018-Feb-12 17:30N 53°31' E 009°56'0 0.0
2018-Feb-12 17:00N 53°31' E 009°56'0 0.0
2018-Feb-12 16:29N 53°31' E 009°56'0 0.0
2018-Feb-12 16:00N 53°31' E 009°56'0 0.0
2018-Feb-12 15:29N 53°31' E 009°56'0 0.0
2018-Feb-12 14:59N 53°31' E 009°56'0 0.0
2018-Feb-12 14:29N 53°31' E 009°56'0 0.0
2018-Feb-12 13:59N 53°31' E 009°56'0 0.0
2018-Feb-12 13:29N 53°31' E 009°56'0 0.0
2018-Feb-12 13:00N 53°31' E 009°56'0 0.0
2018-Feb-12 12:30N 53°31' E 009°56'0 0.0
2018-Feb-12 11:59N 53°31' E 009°56'0 0.0
2018-Feb-12 11:29N 53°31' E 009°56'0 0.0
2018-Feb-12 11:00N 53°31' E 009°56'0 0.0
2018-Feb-12 10:29N 53°31' E 009°56'0 0.0
2018-Feb-12 09:59N 53°31' E 009°56'0 0.0
2018-Feb-12 09:29N 53°31' E 009°56'0 0.0
2018-Feb-12 08:59N 53°31' E 009°56'0 0.0
2018-Feb-12 08:29N 53°31' E 009°56'0 0.0
2018-Feb-12 07:59N 53°31' E 009°56'0 0.0
2018-Feb-12 07:29N 53°31' E 009°56'0 0.0
2018-Feb-12 06:59N 53°31' E 009°56'0 0.0
2018-Feb-12 06:30N 53°31' E 009°56'0 0.0
2018-Feb-12 06:00N 53°31' E 009°56'0 0.6
2018-Feb-12 05:30N 53°31' E 009°57'0 0.0
2018-Feb-12 05:00N 53°31' E 009°57'0 0.0
2018-Feb-12 04:30N 53°31' E 009°57'0 0.0
2018-Feb-12 04:00N 53°31' E 009°57'0 0.0
2018-Feb-12 03:30N 53°31' E 009°57'0 0.0
2018-Feb-12 03:00N 53°31' E 009°57'0 0.0
2018-Feb-12 02:30N 53°31' E 009°57'0 0.0
2018-Feb-12 02:00N 53°31' E 009°57'0 0.0
2018-Feb-12 01:30N 53°31' E 009°57'0 0.0
2018-Feb-12 01:00N 53°31' E 009°57'0 0.0
2018-Feb-12 00:30N 53°31' E 009°57'0 0.0
2018-Feb-12 00:00N 53°31' E 009°57'0 0.0
2018-Feb-11 23:30N 53°31' E 009°57'0 0.0
2018-Feb-11 23:00N 53°31' E 009°57'0 0.0
2018-Feb-11 22:30N 53°31' E 009°57'0 0.0
2018-Feb-11 22:00N 53°31' E 009°57'0 0.0
2018-Feb-11 21:30N 53°31' E 009°57'0 0.0
2018-Feb-11 21:00N 53°31' E 009°57'0 0.0
2018-Feb-11 20:30N 53°31' E 009°57'0 0.0
2018-Feb-11 20:00N 53°31' E 009°57'0 0.0
2018-Feb-11 19:30N 53°31' E 009°57'0 0.0
2018-Feb-11 19:00N 53°31' E 009°57'0 0.0
2018-Feb-11 18:30N 53°31' E 009°57'0 0.0
2018-Feb-11 18:00N 53°31' E 009°57'0 0.0
2018-Feb-11 17:30N 53°31' E 009°57'0 0.0
2018-Feb-11 17:00N 53°31' E 009°57'0 0.0
2018-Feb-11 16:30N 53°31' E 009°57'0 0.0
2018-Feb-11 16:00N 53°31' E 009°57'0 0.0
2018-Feb-11 15:27N 53°31' E 009°57'0 0.0
2018-Feb-11 15:00N 53°31' E 009°57'0 0.0
2018-Feb-11 14:30N 53°31' E 009°57'0 0.0
2018-Feb-11 14:00N 53°31' E 009°57'0 0.0
2018-Feb-11 13:30N 53°31' E 009°57'0 0.0
2018-Feb-11 13:00N 53°31' E 009°57'0 0.0
2018-Feb-11 12:30N 53°31' E 009°57'0 0.0
2018-Feb-11 12:00N 53°31' E 009°57'0 0.0
2018-Feb-11 11:30N 53°31' E 009°57'0 0.0
2018-Feb-11 11:00N 53°31' E 009°57'0 0.0
2018-Feb-11 10:30N 53°31' E 009°57'0 0.0
2018-Feb-11 10:00N 53°31' E 009°57'0 0.0
2018-Feb-11 09:30N 53°31' E 009°57'0 0.0
2018-Feb-11 09:00N 53°31' E 009°57'0 0.0
2018-Feb-11 08:30N 53°31' E 009°57'0 0.0
2018-Feb-11 08:00N 53°31' E 009°57'0 0.0
2018-Feb-11 07:30N 53°31' E 009°57'0 0.0
2018-Feb-11 07:00N 53°31' E 009°57'0 0.0
2018-Feb-11 06:30N 53°31' E 009°57'0 0.0
2018-Feb-11 06:00N 53°31' E 009°57'0 0.0
2018-Feb-11 05:30N 53°31' E 009°57'0 0.0
2018-Feb-11 05:00N 53°31' E 009°57'0 0.0
2018-Feb-11 04:30N 53°31' E 009°57'0 0.0
2018-Feb-11 04:00N 53°31' E 009°57'0 0.0
2018-Feb-11 03:30N 53°31' E 009°57'0 0.0
2018-Feb-11 03:00N 53°31' E 009°57'0 0.0
2018-Feb-11 02:30N 53°31' E 009°57'0 0.0
2018-Feb-11 02:00N 53°31' E 009°57'0 0.0
2018-Feb-11 01:30N 53°31' E 009°57'0 0.0
2018-Feb-11 01:00N 53°31' E 009°57'0 0.0
2018-Feb-11 00:30N 53°31' E 009°57'0 0.0
2018-Feb-11 00:00N 53°31' E 009°57'0 0.0
2018-Feb-10 23:30N 53°31' E 009°57'0 0.0
2018-Feb-10 23:00N 53°31' E 009°57'0 0.0
2018-Feb-10 22:30N 53°31' E 009°57'0 0.0
2018-Feb-10 22:00N 53°31' E 009°57'0 0.0
2018-Feb-10 21:30N 53°31' E 009°57'0 0.0
2018-Feb-10 21:00N 53°31' E 009°57'0 0.0
2018-Feb-10 20:30N 53°31' E 009°57'0 0.0
2018-Feb-10 20:00N 53°31' E 009°57'0 0.0
2018-Feb-10 19:30N 53°31' E 009°57'0 0.0
2018-Feb-10 19:00N 53°31' E 009°57'0 0.0
2018-Feb-10 18:30N 53°31' E 009°57'0 0.0
2018-Feb-10 18:00N 53°31' E 009°57'0 0.0
2018-Feb-10 17:30N 53°31' E 009°57'0 0.0
2018-Feb-10 17:00N 53°31' E 009°57'0 0.0
2018-Feb-10 16:30N 53°31' E 009°57'0 0.0
2018-Feb-10 16:00N 53°31' E 009°57'0 0.0
2018-Feb-10 15:30N 53°31' E 009°57'0 0.0
2018-Feb-10 15:00N 53°31' E 009°57'0 0.0
2018-Feb-10 14:30N 53°31' E 009°57'0 0.0
2018-Feb-10 14:00N 53°31' E 009°57'0 0.0
2018-Feb-10 13:30N 53°31' E 009°57'0 0.0
2018-Feb-10 13:00N 53°31' E 009°57'0 0.0
2018-Feb-10 12:30N 53°31' E 009°57'0 0.0
2018-Feb-10 12:00N 53°31' E 009°57'0 0.0
2018-Feb-10 11:30N 53°31' E 009°57'0 0.0
2018-Feb-10 11:00N 53°31' E 009°57'0 0.0
2018-Feb-10 10:30N 53°31' E 009°57'0 0.0
2018-Feb-10 10:00N 53°31' E 009°57'0 0.9
2018-Feb-10 09:30N 53°32' E 009°56'3 5.9
2018-Feb-10 09:00N 53°33' E 009°52'3 7.0
2018-Feb-10 08:30N 53°34' E 009°46'5 9.2
2018-Feb-10 08:00N 53°34' E 009°38'5 9.9
2018-Feb-10 07:30N 53°38' E 009°32'611.9
2018-Feb-10 07:01N 53°43' E 009°28'713.0
2018-Feb-10 06:30N 53°49' E 009°22'713.3
2018-Feb-10 06:00N 53°53' E 009°13'510.2
2018-Feb-10 05:31N 53°52' E 009°05'611.6
2018-Feb-10 05:00N 53°51' E 008°55'612.3
2018-Feb-10 04:30N 53°51' E 008°45'510.5
2018-Feb-10 04:00N 53°56' E 008°40'612.2
2018-Feb-10 03:30N 53°58' E 008°31'713.6
2018-Feb-10 03:00N 53°59' E 008°19'713.0
2018-Feb-10 02:28N 53°59' E 008°07'  
Track history (hours):
 
Tides and Currents Weather Stations Pressure Air Temp Water Temp Dewpoint Dewpoint Depression Visibility Wind Speed Wind Dir Waves Ship Positions

Elvia

Last reported at 2018-Feb-19 07:27 UTC. Time now 2018-Feb-21 03:22 UTC.
Position N 49°17' W 005°60'.

Length 230 m; draft 9.6 m.

Type: Ship. MMSI: 229148000.

Date/timePositionNaut miles runAvg speedWind from/ knotsBaromVisibWave heightAir tempDewpointWater temp
2018-Feb-19 07:27N 49°17' W 005°60'9011.4
2018-Feb-18 23:32N 49°47' W 003°49'013.1
2018-Feb-18 23:30N 49°47' W 003°48'712.4
2018-Feb-18 22:55N 49°50' W 003°38'511.9
2018-Feb-18 22:30N 49°53' W 003°31'611.4
2018-Feb-18 22:01N 49°54' W 003°23'610.9
2018-Feb-18 21:30N 49°56' W 003°15'610.5
2018-Feb-18 20:58N 49°58' W 003°07'510.4
2018-Feb-18 20:31N 49°59' W 002°60'510.6
2018-Feb-18 20:01N 50°01' W 002°52'510.9
2018-Feb-18 19:30N 50°03' W 002°44'611.3
2018-Feb-18 19:01N 50°04' W 002°35'1813.0
2018-Feb-18 17:36N 50°08' W 002°07'314.7
2018-Feb-18 17:24N 50°09' W 002°03'615.3
2018-Feb-18 17:00N 50°10' W 001°54'815.9
2018-Feb-18 16:30N 50°12' W 001°42'816.0
2018-Feb-18 16:00N 50°15' W 001°30'816.1
2018-Feb-18 15:30N 50°17' W 001°18'3314.6
2018-Feb-18 13:16N 50°26' W 000°28'312.9
2018-Feb-18 13:00N 50°26' W 000°23'612.4
2018-Feb-18 12:30N 50°28' W 000°14'611.7
2018-Feb-18 12:00N 50°30' W 000°05'611.2
2018-Feb-18 11:30N 50°31' E 000°04'510.7
2018-Feb-18 11:00N 50°33' E 000°12'510.3
2018-Feb-18 10:31N 50°34' E 000°20'510.1
2018-Feb-18 10:00N 50°35' E 000°27'510.8
2018-Feb-18 09:30N 50°37' E 000°35'611.6
2018-Feb-18 09:00N 50°40' E 000°43'612.5
2018-Feb-18 08:30N 50°44' E 000°51'713.5
2018-Feb-18 08:00N 50°47' E 001°00'714.0
2018-Feb-18 07:30N 50°51' E 001°09'714.3
2018-Feb-18 07:00N 50°55' E 001°19'714.5
2018-Feb-18 06:30N 51°01' E 001°26'613.0
2018-Feb-18 06:00N 51°05' E 001°33'612.4
2018-Feb-18 05:30N 51°10' E 001°40'612.0
2018-Feb-18 05:01N 51°14' E 001°47'611.3
2018-Feb-18 04:30N 51°19' E 001°50'510.8
2018-Feb-18 04:00N 51°24' E 001°54'510.5
2018-Feb-18 03:30N 51°29' E 001°58'510.8
2018-Feb-18 03:00N 51°33' E 002°05'510.9
2018-Feb-18 02:30N 51°37' E 002°10'510.8
2018-Feb-18 02:01N 51°41' E 002°16'611.2
2018-Feb-18 01:30N 51°45' E 002°22'611.9
2018-Feb-18 01:00N 51°49' E 002°28'612.5
2018-Feb-18 00:30N 51°54' E 002°35'3313.8
2018-Feb-17 22:07N 52°19' E 003°10'5512.8
2018-Feb-17 17:47N 53°02' E 004°08'311.6
2018-Feb-17 17:30N 53°04' E 004°12'1311.1
2018-Feb-17 16:20N 53°14' E 004°26'4512.4
2018-Feb-17 12:39N 53°40' E 005°29'2312.5
2018-Feb-17 10:48N 53°47' E 006°06'1311.4
2018-Feb-17 09:38N 53°51' E 006°28'6112.2
2018-Feb-17 04:38N 54°00' E 008°11'110.9
2018-Feb-17 04:30N 54°00' E 008°13'713.6
2018-Feb-17 04:00N 53°59' E 008°24'816.0
2018-Feb-17 03:30N 53°57' E 008°37'714.9
2018-Feb-17 03:00N 53°51' E 008°45'612.3
2018-Feb-17 02:30N 53°51' E 008°55'611.5
2018-Feb-17 02:00N 53°52' E 009°05'4 7.9
2018-Feb-17 01:30N 53°53' E 009°11'5 9.3
2018-Feb-17 01:00N 53°51' E 009°19'510.2
2018-Feb-17 00:30N 53°47' E 009°23'5 9.6
2018-Feb-17 00:01N 53°43' E 009°28'5 9.7
2018-Feb-16 23:30N 53°39' E 009°31'510.0
2018-Feb-16 23:00N 53°35' E 009°37'611.3
2018-Feb-16 22:30N 53°34' E 009°46'510.2
2018-Feb-16 22:00N 53°33' E 009°55'2 3.6
2018-Feb-16 21:31N 53°31' E 009°57'0 0.1
2018-Feb-16 20:58N 53°31' E 009°57'0 0.0
2018-Feb-16 20:25N 53°31' E 009°57'0 0.0
2018-Feb-16 19:58N 53°31' E 009°57'0 0.0
2018-Feb-16 19:28N 53°31' E 009°57'0 0.0
2018-Feb-16 18:58N 53°31' E 009°57'0 0.0
2018-Feb-16 18:28N 53°31' E 009°57'0 0.0
2018-Feb-16 17:58N 53°31' E 009°57'0 0.0
2018-Feb-16 17:28N 53°31' E 009°57'0 0.0
2018-Feb-16 16:58N 53°31' E 009°57'0 0.0
2018-Feb-16 16:28N 53°31' E 009°57'0 0.0
2018-Feb-16 15:58N 53°31' E 009°57'0 0.0
2018-Feb-16 15:28N 53°31' E 009°57'0 0.0
2018-Feb-16 14:58N 53°31' E 009°57'0 0.0
2018-Feb-16 14:28N 53°31' E 009°57'0 0.0
2018-Feb-16 13:58N 53°31' E 009°57'0 0.0
2018-Feb-16 13:25N 53°31' E 009°57'0 0.0
2018-Feb-16 12:58N 53°31' E 009°57'0 0.0
2018-Feb-16 12:28N 53°31' E 009°57'0 0.0
2018-Feb-16 11:58N 53°31' E 009°57'0 0.0
2018-Feb-16 11:28N 53°31' E 009°57'0 0.0
2018-Feb-16 10:58N 53°31' E 009°57'0 0.0
2018-Feb-16 10:28N 53°31' E 009°57'0 0.0
2018-Feb-16 09:58N 53°31' E 009°57'0 0.0
2018-Feb-16 09:28N 53°31' E 009°57'0 0.0
2018-Feb-16 08:58N 53°31' E 009°57'0 0.0
2018-Feb-16 08:28N 53°31' E 009°57'0 0.0
2018-Feb-16 07:58N 53°31' E 009°57'0 0.0
2018-Feb-16 07:28N 53°31' E 009°57'0 0.0
2018-Feb-16 06:58N 53°31' E 009°57'0 0.0
2018-Feb-16 06:28N 53°31' E 009°57'0 0.0
2018-Feb-16 05:58N 53°31' E 009°57'0 0.0
2018-Feb-16 05:28N 53°31' E 009°57'0 0.0
2018-Feb-16 04:58N 53°31' E 009°57'0 0.0
2018-Feb-16 04:28N 53°31' E 009°57'0 0.0
2018-Feb-16 03:58N 53°31' E 009°57'0 0.0
2018-Feb-16 03:25N 53°31' E 009°57'0 0.0
2018-Feb-16 02:58N 53°31' E 009°57'0 0.0
2018-Feb-16 02:28N 53°31' E 009°57'0 0.0
2018-Feb-16 01:58N 53°31' E 009°57'0 0.0
2018-Feb-16 01:28N 53°31' E 009°57'0 0.0
2018-Feb-16 00:58N 53°31' E 009°57'0 0.0
2018-Feb-16 00:28N 53°31' E 009°57'0 0.0
2018-Feb-15 23:58N 53°31' E 009°57'0 0.0
2018-Feb-15 23:28N 53°31' E 009°57'0 0.0
2018-Feb-15 22:58N 53°31' E 009°57'0 0.0
2018-Feb-15 22:28N 53°31' E 009°57'0 0.0
2018-Feb-15 21:58N 53°31' E 009°57'0 0.0
2018-Feb-15 21:28N 53°31' E 009°57'0 0.0
2018-Feb-15 20:58N 53°31' E 009°57'0 0.0
2018-Feb-15 20:28N 53°31' E 009°57'0 0.0
2018-Feb-15 19:58N 53°31' E 009°57'0 0.0
2018-Feb-15 19:28N 53°31' E 009°57'0 0.0
2018-Feb-15 18:58N 53°31' E 009°57'0 0.0
2018-Feb-15 18:28N 53°31' E 009°57'0 0.0
2018-Feb-15 17:58N 53°31' E 009°57'0 0.0
2018-Feb-15 17:28N 53°31' E 009°57'0 0.0
2018-Feb-15 16:58N 53°31' E 009°57'0 0.0
2018-Feb-15 16:25N 53°31' E 009°57'0 0.0
2018-Feb-15 15:58N 53°31' E 009°57'0 0.0
2018-Feb-15 15:28N 53°31' E 009°57'0 0.0
2018-Feb-15 14:58N 53°31' E 009°57'0 0.0
2018-Feb-15 14:28N 53°31' E 009°57'0 0.0
2018-Feb-15 13:58N 53°31' E 009°57'0 0.0
2018-Feb-15 13:28N 53°31' E 009°57'0 0.0
2018-Feb-15 12:58N 53°31' E 009°57'0 0.0
2018-Feb-15 12:28N 53°31' E 009°57'0 0.0
2018-Feb-15 11:58N 53°31' E 009°57'0 0.0
2018-Feb-15 11:28N 53°31' E 009°57'0 0.0
2018-Feb-15 10:58N 53°31' E 009°57'0 0.0
2018-Feb-15 10:28N 53°31' E 009°57'0 0.0
2018-Feb-15 09:58N 53°31' E 009°57'0 0.0
2018-Feb-15 09:28N 53°31' E 009°57'0 0.0
2018-Feb-15 08:58N 53°31' E 009°57'0 0.0
2018-Feb-15 08:28N 53°31' E 009°57'0 0.0
2018-Feb-15 07:55N 53°31' E 009°57'0 0.0
2018-Feb-15 07:28N 53°31' E 009°57'0 0.0
2018-Feb-15 06:58N 53°31' E 009°57'0 0.0
2018-Feb-15 06:28N 53°31' E 009°57'0 0.0
2018-Feb-15 05:58N 53°31' E 009°57'0 0.0
2018-Feb-15 05:28N 53°31' E 009°57'0 0.0
2018-Feb-15 04:58N 53°31' E 009°57'0 0.0
2018-Feb-15 04:28N 53°31' E 009°57'0 0.0
2018-Feb-15 03:58N 53°31' E 009°57'0 0.0
2018-Feb-15 03:28N 53°31' E 009°57'0 0.0
2018-Feb-15 02:58N 53°31' E 009°57'0 0.0
2018-Feb-15 02:25N 53°31' E 009°57'0 0.0
2018-Feb-15 01:58N 53°31' E 009°57'0 0.0
2018-Feb-15 01:28N 53°31' E 009°57'0 0.0
2018-Feb-15 00:58N 53°31' E 009°57'0 0.0
2018-Feb-15 00:28N 53°31' E 009°57'0 0.0
2018-Feb-14 23:58N 53°31' E 009°57'0 0.0
2018-Feb-14 23:28N 53°31' E 009°57'0 0.0
2018-Feb-14 22:58N 53°31' E 009°57'0 0.0
2018-Feb-14 22:28N 53°31' E 009°57'0 0.0
2018-Feb-14 21:58N 53°31' E 009°57'0 0.0
2018-Feb-14 21:28N 53°31' E 009°57'0 0.0
2018-Feb-14 20:58N 53°31' E 009°57'0 0.0
2018-Feb-14 20:28N 53°31' E 009°57'0 0.0
2018-Feb-14 19:58N 53°31' E 009°57'0 0.0
2018-Feb-14 19:28N 53°31' E 009°57'0 0.0
2018-Feb-14 18:58N 53°31' E 009°57'0 0.0
2018-Feb-14 18:28N 53°31' E 009°57'0 0.0
2018-Feb-14 17:58N 53°31' E 009°57'0 0.0
2018-Feb-14 17:28N 53°31' E 009°57'0 0.0
2018-Feb-14 16:58N 53°31' E 009°57'0 0.0
2018-Feb-14 16:28N 53°31' E 009°57'0 0.0
2018-Feb-14 15:55N 53°31' E 009°57'0 0.0
2018-Feb-14 15:28N 53°31' E 009°57'0 0.0
2018-Feb-14 14:58N 53°31' E 009°57'0 0.0
2018-Feb-14 14:28N 53°31' E 009°57'0 0.0
2018-Feb-14 13:58N 53°31' E 009°57'0 0.0
2018-Feb-14 13:28N 53°31' E 009°57'0 0.0
2018-Feb-14 12:58N 53°31' E 009°57'0 0.0
2018-Feb-14 12:22N 53°31' E 009°57'0 0.0
2018-Feb-14 11:58N 53°31' E 009°57'0 0.0
2018-Feb-14 11:28N 53°31' E 009°57'0 0.0
2018-Feb-14 10:58N 53°31' E 009°57'0 0.0
2018-Feb-14 10:28N 53°31' E 009°57'0 0.0
2018-Feb-14 09:58N 53°31' E 009°57'0 0.0
2018-Feb-14 09:25N 53°31' E 009°57'0 0.0
2018-Feb-14 08:58N 53°31' E 009°57'0 0.0
2018-Feb-14 08:28N 53°31' E 009°57'0 0.0
2018-Feb-14 07:58N 53°31' E 009°57'0 0.0
2018-Feb-14 07:28N 53°31' E 009°57'0 0.0
2018-Feb-14 06:58N 53°31' E 009°57'0 0.0
2018-Feb-14 06:28N 53°31' E 009°57'0 0.0
2018-Feb-14 05:58N 53°31' E 009°57'0 0.0
2018-Feb-14 05:28N 53°31' E 009°57'0 0.0
2018-Feb-14 04:58N 53°31' E 009°57'0 0.0
2018-Feb-14 04:28N 53°31' E 009°57'0 0.0
2018-Feb-14 03:58N 53°31' E 009°57'0 0.0
2018-Feb-14 03:28N 53°31' E 009°57'0 0.0
2018-Feb-14 02:58N 53°31' E 009°57'0 0.0
2018-Feb-14 02:28N 53°31' E 009°57'0 0.0
2018-Feb-14 01:58N 53°31' E 009°57'0 0.0
2018-Feb-14 01:28N 53°31' E 009°57'0 0.0
2018-Feb-14 00:58N 53°31' E 009°57'0 0.0
2018-Feb-14 00:28N 53°31' E 009°57'0 0.0
2018-Feb-13 23:58N 53°31' E 009°57'0 0.0
2018-Feb-13 23:28N 53°31' E 009°57'0 0.0
2018-Feb-13 22:58N 53°31' E 009°57'0 0.0
2018-Feb-13 22:28N 53°31' E 009°57'0 0.0
2018-Feb-13 21:58N 53°31' E 009°57'0 0.0
2018-Feb-13 21:28N 53°31' E 009°57'0 0.0
2018-Feb-13 20:58N 53°31' E 009°57'0 0.0
2018-Feb-13 20:25N 53°31' E 009°57'0 0.0
2018-Feb-13 19:58N 53°31' E 009°57'0 0.0
2018-Feb-13 19:28N 53°31' E 009°57'0 0.0
2018-Feb-13 18:58N 53°31' E 009°57'0 0.0
2018-Feb-13 18:28N 53°31' E 009°57'0 0.0
2018-Feb-13 17:58N 53°31' E 009°57'0 0.0
2018-Feb-13 17:25N 53°31' E 009°57'0 0.0
2018-Feb-13 16:58N 53°31' E 009°57'0 0.0
2018-Feb-13 16:28N 53°31' E 009°57'0 0.0
2018-Feb-13 15:58N 53°31' E 009°57'0 0.0
2018-Feb-13 15:28N 53°31' E 009°57'0 0.0
2018-Feb-13 14:58N 53°31' E 009°57'0 0.0
2018-Feb-13 14:28N 53°31' E 009°57'0 0.0
2018-Feb-13 13:58N 53°31' E 009°57'0 0.3
2018-Feb-13 13:30N 53°31' E 009°56'0 0.4
2018-Feb-13 12:59N 53°31' E 009°56'0 0.0
2018-Feb-13 12:29N 53°31' E 009°56'0 0.0
2018-Feb-13 12:00N 53°31' E 009°56'0 0.0
2018-Feb-13 11:29N 53°31' E 009°56'0 0.0
2018-Feb-13 11:00N 53°31' E 009°56'0 0.0
2018-Feb-13 10:30N 53°31' E 009°56'0 0.0
2018-Feb-13 09:59N 53°31' E 009°56'0 0.0
2018-Feb-13 09:29N 53°31' E 009°56'0 0.0
2018-Feb-13 08:59N 53°31' E 009°56'0 0.0
2018-Feb-13 08:30N 53°31' E 009°56'0 0.0
2018-Feb-13 07:59N 53°31' E 009°56'0 0.0
2018-Feb-13 07:30N 53°31' E 009°56'0 0.0
2018-Feb-13 07:00N 53°31' E 009°56'0 0.0
2018-Feb-13 06:30N 53°31' E 009°56'0 0.0
2018-Feb-13 05:59N 53°31' E 009°56'0 0.0
2018-Feb-13 05:30N 53°31' E 009°56'0 0.0
2018-Feb-13 04:59N 53°31' E 009°56'0 0.0
2018-Feb-13 04:30N 53°31' E 009°56'0 0.0
2018-Feb-13 04:00N 53°31' E 009°56'0 0.0
2018-Feb-13 03:29N 53°31' E 009°56'0 0.0
2018-Feb-13 03:00N 53°31' E 009°56'0 0.0
2018-Feb-13 02:29N 53°31' E 009°56'0 0.0
2018-Feb-13 01:59N 53°31' E 009°56'0 0.0
2018-Feb-13 01:30N 53°31' E 009°56'0 0.0
2018-Feb-13 01:00N 53°31' E 009°56'0 0.0
2018-Feb-13 00:30N 53°31' E 009°56'0 0.0
2018-Feb-12 23:59N 53°31' E 009°56'0 0.0
2018-Feb-12 23:30N 53°31' E 009°56'0 0.0
2018-Feb-12 23:00N 53°31' E 009°56'0 0.0
2018-Feb-12 22:30N 53°31' E 009°56'0 0.0
2018-Feb-12 22:00N 53°31' E 009°56'0 0.0
2018-Feb-12 21:30N 53°31' E 009°56'0 0.0
2018-Feb-12 20:59N 53°31' E 009°56'0 0.0
2018-Feb-12 20:30N 53°31' E 009°56'0 0.0
2018-Feb-12 19:59N 53°31' E 009°56'0 0.0
2018-Feb-12 19:30N 53°31' E 009°56'0 0.0
2018-Feb-12 19:00N 53°31' E 009°56'0 0.0
2018-Feb-12 18:30N 53°31' E 009°56'0 0.0
2018-Feb-12 18:00N 53°31' E 009°56'0 0.0
2018-Feb-12 17:30N 53°31' E 009°56'0 0.0
2018-Feb-12 17:00N 53°31' E 009°56'0 0.0
2018-Feb-12 16:29N 53°31' E 009°56'0 0.0
2018-Feb-12 16:00N 53°31' E 009°56'0 0.0
2018-Feb-12 15:29N 53°31' E 009°56'0 0.0
2018-Feb-12 14:59N 53°31' E 009°56'0 0.0
2018-Feb-12 14:29N 53°31' E 009°56'0 0.0
2018-Feb-12 13:59N 53°31' E 009°56'0 0.0
2018-Feb-12 13:29N 53°31' E 009°56'0 0.0
2018-Feb-12 13:00N 53°31' E 009°56'0 0.0
2018-Feb-12 12:30N 53°31' E 009°56'0 0.0
2018-Feb-12 11:59N 53°31' E 009°56'0 0.0
2018-Feb-12 11:29N 53°31' E 009°56'0 0.0
2018-Feb-12 11:00N 53°31' E 009°56'0 0.0
2018-Feb-12 10:29N 53°31' E 009°56'0 0.0
2018-Feb-12 09:59N 53°31' E 009°56'0 0.0
2018-Feb-12 09:29N 53°31' E 009°56'0 0.0
2018-Feb-12 08:59N 53°31' E 009°56'0 0.0
2018-Feb-12 08:29N 53°31' E 009°56'0 0.0
2018-Feb-12 07:59N 53°31' E 009°56'0 0.0
2018-Feb-12 07:29N 53°31' E 009°56'0 0.0
2018-Feb-12 06:59N 53°31' E 009°56'0 0.0
2018-Feb-12 06:30N 53°31' E 009°56'0 0.0
2018-Feb-12 06:00N 53°31' E 009°56'0 0.6
2018-Feb-12 05:30N 53°31' E 009°57'0 0.0
2018-Feb-12 05:00N 53°31' E 009°57'0 0.0
2018-Feb-12 04:30N 53°31' E 009°57'0 0.0
2018-Feb-12 04:00N 53°31' E 009°57'0 0.0
2018-Feb-12 03:30N 53°31' E 009°57'0 0.0
2018-Feb-12 03:00N 53°31' E 009°57'0 0.0
2018-Feb-12 02:30N 53°31' E 009°57'0 0.0
2018-Feb-12 02:00N 53°31' E 009°57'0 0.0
2018-Feb-12 01:30N 53°31' E 009°57'0 0.0
2018-Feb-12 01:00N 53°31' E 009°57'0 0.0
2018-Feb-12 00:30N 53°31' E 009°57'0 0.0
2018-Feb-12 00:00N 53°31' E 009°57'0 0.0
2018-Feb-11 23:30N 53°31' E 009°57'0 0.0
2018-Feb-11 23:00N 53°31' E 009°57'0 0.0
2018-Feb-11 22:30N 53°31' E 009°57'0 0.0
2018-Feb-11 22:00N 53°31' E 009°57'0 0.0
2018-Feb-11 21:30N 53°31' E 009°57'0 0.0
2018-Feb-11 21:00N 53°31' E 009°57'0 0.0
2018-Feb-11 20:30N 53°31' E 009°57'0 0.0
2018-Feb-11 20:00N 53°31' E 009°57'0 0.0
2018-Feb-11 19:30N 53°31' E 009°57'0 0.0
2018-Feb-11 19:00N 53°31' E 009°57'0 0.0
2018-Feb-11 18:30N 53°31' E 009°57'0 0.0
2018-Feb-11 18:00N 53°31' E 009°57'0 0.0
2018-Feb-11 17:30N 53°31' E 009°57'0 0.0
2018-Feb-11 17:00N 53°31' E 009°57'0 0.0
2018-Feb-11 16:30N 53°31' E 009°57'0 0.0
2018-Feb-11 16:00N 53°31' E 009°57'0 0.0
2018-Feb-11 15:27N 53°31' E 009°57'0 0.0
2018-Feb-11 15:00N 53°31' E 009°57'0 0.0
2018-Feb-11 14:30N 53°31' E 009°57'0 0.0
2018-Feb-11 14:00N 53°31' E 009°57'0 0.0
2018-Feb-11 13:30N 53°31' E 009°57'0 0.0
2018-Feb-11 13:00N 53°31' E 009°57'0 0.0
2018-Feb-11 12:30N 53°31' E 009°57'0 0.0
2018-Feb-11 12:00N 53°31' E 009°57'0 0.0
2018-Feb-11 11:30N 53°31' E 009°57'0 0.0
2018-Feb-11 11:00N 53°31' E 009°57'0 0.0
2018-Feb-11 10:30N 53°31' E 009°57'0 0.0
2018-Feb-11 10:00N 53°31' E 009°57'0 0.0
2018-Feb-11 09:30N 53°31' E 009°57'0 0.0
2018-Feb-11 09:00N 53°31' E 009°57'0 0.0
2018-Feb-11 08:30N 53°31' E 009°57'0 0.0
2018-Feb-11 08:00N 53°31' E 009°57'0 0.0
2018-Feb-11 07:30N 53°31' E 009°57'0 0.0
2018-Feb-11 07:00N 53°31' E 009°57'0 0.0
2018-Feb-11 06:30N 53°31' E 009°57'0 0.0
2018-Feb-11 06:00N 53°31' E 009°57'0 0.0
2018-Feb-11 05:30N 53°31' E 009°57'0 0.0
2018-Feb-11 05:00N 53°31' E 009°57'0 0.0
2018-Feb-11 04:30N 53°31' E 009°57'0 0.0
2018-Feb-11 04:00N 53°31' E 009°57'0 0.0
2018-Feb-11 03:30N 53°31' E 009°57'0 0.0
2018-Feb-11 03:00N 53°31' E 009°57'0 0.0
2018-Feb-11 02:30N 53°31' E 009°57'0 0.0
2018-Feb-11 02:00N 53°31' E 009°57'0 0.0
2018-Feb-11 01:30N 53°31' E 009°57'0 0.0
2018-Feb-11 01:00N 53°31' E 009°57'0 0.0
2018-Feb-11 00:30N 53°31' E 009°57'0 0.0
2018-Feb-11 00:00N 53°31' E 009°57'0 0.0
2018-Feb-10 23:30N 53°31' E 009°57'0 0.0
2018-Feb-10 23:00N 53°31' E 009°57'0 0.0
2018-Feb-10 22:30N 53°31' E 009°57'0 0.0
2018-Feb-10 22:00N 53°31' E 009°57'0 0.0
2018-Feb-10 21:30N 53°31' E 009°57'0 0.0
2018-Feb-10 21:00N 53°31' E 009°57'0 0.0
2018-Feb-10 20:30N 53°31' E 009°57'0 0.0
2018-Feb-10 20:00N 53°31' E 009°57'0 0.0
2018-Feb-10 19:30N 53°31' E 009°57'0 0.0
2018-Feb-10 19:00N 53°31' E 009°57'0 0.0
2018-Feb-10 18:30N 53°31' E 009°57'0 0.0
2018-Feb-10 18:00N 53°31' E 009°57'0 0.0
2018-Feb-10 17:30N 53°31' E 009°57'0 0.0
2018-Feb-10 17:00N 53°31' E 009°57'0 0.0
2018-Feb-10 16:30N 53°31' E 009°57'0 0.0
2018-Feb-10 16:00N 53°31' E 009°57'0 0.0
2018-Feb-10 15:30N 53°31' E 009°57'0 0.0
2018-Feb-10 15:00N 53°31' E 009°57'0 0.0
2018-Feb-10 14:30N 53°31' E 009°57'0 0.0
2018-Feb-10 14:00N 53°31' E 009°57'0 0.0
2018-Feb-10 13:30N 53°31' E 009°57'0 0.0
2018-Feb-10 13:00N 53°31' E 009°57'0 0.0
2018-Feb-10 12:30N 53°31' E 009°57'0 0.0
2018-Feb-10 12:00N 53°31' E 009°57'0 0.0
2018-Feb-10 11:30N 53°31' E 009°57'0 0.0
2018-Feb-10 11:00N 53°31' E 009°57'0 0.0
2018-Feb-10 10:30N 53°31' E 009°57'0 0.0
2018-Feb-10 10:00N 53°31' E 009°57'0 0.9
2018-Feb-10 09:30N 53°32' E 009°56'3 5.9
2018-Feb-10 09:00N 53°33' E 009°52'3 7.0
2018-Feb-10 08:30N 53°34' E 009°46'5 9.2
2018-Feb-10 08:00N 53°34' E 009°38'5 9.9
2018-Feb-10 07:30N 53°38' E 009°32'611.9
2018-Feb-10 07:01N 53°43' E 009°28'713.0
2018-Feb-10 06:30N 53°49' E 009°22'713.3
2018-Feb-10 06:00N 53°53' E 009°13'510.2
2018-Feb-10 05:31N 53°52' E 009°05'611.6
2018-Feb-10 05:00N 53°51' E 008°55'612.3
2018-Feb-10 04:30N 53°51' E 008°45'510.5
2018-Feb-10 04:00N 53°56' E 008°40'612.2
2018-Feb-10 03:30N 53°58' E 008°31'713.6
2018-Feb-10 03:00N 53°59' E 008°19'713.0
2018-Feb-10 02:28N 53°59' E 008°07'  

Dump ship's entire track history